sensor_id;sensor_type;location;lat;lon;timestamp;P1;durP1;ratioP1;P2;durP2;ratioP2
11125;SDS011;5617;54.046;10.676;2023-03-23T00:01:11;7.00;;;6.27;;
11125;SDS011;5617;54.046;10.676;2023-03-23T00:03:20;10.00;;;6.90;;
11125;SDS011;5617;54.046;10.676;2023-03-23T00:05:29;9.30;;;6.53;;
11125;SDS011;5617;54.046;10.676;2023-03-23T00:07:37;8.53;;;6.07;;
11125;SDS011;5617;54.046;10.676;2023-03-23T00:09:50;9.33;;;6.83;;
11125;SDS011;5617;54.046;10.676;2023-03-23T00:12:01;7.17;;;6.00;;
11125;SDS011;5617;54.046;10.676;2023-03-23T00:14:11;7.40;;;6.43;;
11125;SDS011;5617;54.046;10.676;2023-03-23T00:16:20;8.33;;;6.63;;
11125;SDS011;5617;54.046;10.676;2023-03-23T00:18:36;9.30;;;6.37;;
11125;SDS011;5617;54.046;10.676;2023-03-23T00:20:45;7.77;;;6.30;;
11125;SDS011;5617;54.046;10.676;2023-03-23T00:22:55;7.67;;;5.87;;
11125;SDS011;5617;54.046;10.676;2023-03-23T00:25:06;6.73;;;6.00;;
11125;SDS011;5617;54.046;10.676;2023-03-23T00:27:16;6.97;;;6.13;;
11125;SDS011;5617;54.046;10.676;2023-03-23T00:29:24;8.43;;;5.83;;
11125;SDS011;5617;54.046;10.676;2023-03-23T00:31:33;7.97;;;6.00;;
11125;SDS011;5617;54.046;10.676;2023-03-23T00:33:41;6.90;;;6.20;;
11125;SDS011;5617;54.046;10.676;2023-03-23T00:35:49;5.43;;;4.70;;
11125;SDS011;5617;54.046;10.676;2023-03-23T00:37:58;8.17;;;5.93;;
11125;SDS011;5617;54.046;10.676;2023-03-23T00:40:06;7.67;;;5.53;;
11125;SDS011;5617;54.046;10.676;2023-03-23T00:42:17;9.33;;;5.93;;
11125;SDS011;5617;54.046;10.676;2023-03-23T00:44:25;7.73;;;6.53;;
11125;SDS011;5617;54.046;10.676;2023-03-23T00:46:34;5.67;;;5.00;;
11125;SDS011;5617;54.046;10.676;2023-03-23T00:48:51;5.90;;;5.30;;
11125;SDS011;5617;54.046;10.676;2023-03-23T00:50:59;6.37;;;4.90;;
11125;SDS011;5617;54.046;10.676;2023-03-23T00:53:08;6.20;;;5.10;;
11125;SDS011;5617;54.046;10.676;2023-03-23T00:55:15;6.77;;;5.37;;
11125;SDS011;5617;54.046;10.676;2023-03-23T00:57:25;6.13;;;4.77;;
11125;SDS011;5617;54.046;10.676;2023-03-23T00:59:32;6.00;;;5.40;;
11125;SDS011;5617;54.046;10.676;2023-03-23T01:01:40;8.20;;;5.63;;
11125;SDS011;5617;54.046;10.676;2023-03-23T01:03:48;8.63;;;6.40;;
11125;SDS011;5617;54.046;10.676;2023-03-23T01:05:56;10.53;;;5.80;;
11125;SDS011;5617;54.046;10.676;2023-03-23T01:08:04;6.47;;;5.63;;
11125;SDS011;5617;54.046;10.676;2023-03-23T01:10:13;9.73;;;6.43;;
11125;SDS011;5617;54.046;10.676;2023-03-23T01:12:25;8.33;;;7.13;;
11125;SDS011;5617;54.046;10.676;2023-03-23T01:14:33;8.07;;;6.77;;
11125;SDS011;5617;54.046;10.676;2023-03-23T01:16:40;7.20;;;5.87;;
11125;SDS011;5617;54.046;10.676;2023-03-23T01:18:49;7.03;;;6.33;;
11125;SDS011;5617;54.046;10.676;2023-03-23T01:20:57;8.53;;;6.43;;
11125;SDS011;5617;54.046;10.676;2023-03-23T01:23:04;6.97;;;6.27;;
11125;SDS011;5617;54.046;10.676;2023-03-23T01:25:12;7.30;;;6.47;;
11125;SDS011;5617;54.046;10.676;2023-03-23T01:27:22;6.73;;;6.07;;
11125;SDS011;5617;54.046;10.676;2023-03-23T01:29:31;9.10;;;6.57;;
11125;SDS011;5617;54.046;10.676;2023-03-23T01:31:38;7.60;;;6.07;;
11125;SDS011;5617;54.046;10.676;2023-03-23T01:33:48;7.53;;;6.73;;
11125;SDS011;5617;54.046;10.676;2023-03-23T01:35:56;7.47;;;6.40;;
11125;SDS011;5617;54.046;10.676;2023-03-23T01:38:06;9.40;;;6.97;;
11125;SDS011;5617;54.046;10.676;2023-03-23T01:40:14;8.43;;;6.30;;
11125;SDS011;5617;54.046;10.676;2023-03-23T01:42:22;7.20;;;6.47;;
11125;SDS011;5617;54.046;10.676;2023-03-23T01:47:32;7.63;;;6.50;;
11125;SDS011;5617;54.046;10.676;2023-03-23T01:49:41;9.00;;;7.30;;
11125;SDS011;5617;54.046;10.676;2023-03-23T01:51:51;7.60;;;6.47;;
11125;SDS011;5617;54.046;10.676;2023-03-23T01:54:04;8.53;;;7.30;;
11125;SDS011;5617;54.046;10.676;2023-03-23T01:56:17;9.10;;;7.10;;
11125;SDS011;5617;54.046;10.676;2023-03-23T01:58:31;10.13;;;7.30;;
11125;SDS011;5617;54.046;10.676;2023-03-23T02:00:41;9.43;;;7.70;;
11125;SDS011;5617;54.046;10.676;2023-03-23T02:02:50;10.00;;;7.47;;
11125;SDS011;5617;54.046;10.676;2023-03-23T02:05:02;9.93;;;8.00;;
11125;SDS011;5617;54.046;10.676;2023-03-23T02:07:17;8.30;;;7.43;;
11125;SDS011;5617;54.046;10.676;2023-03-23T02:09:27;7.67;;;6.57;;
11125;SDS011;5617;54.046;10.676;2023-03-23T02:11:36;10.17;;;7.70;;
11125;SDS011;5617;54.046;10.676;2023-03-23T02:13:44;9.57;;;7.83;;
11125;SDS011;5617;54.046;10.676;2023-03-23T02:15:56;9.83;;;8.27;;
11125;SDS011;5617;54.046;10.676;2023-03-23T02:18:15;9.97;;;8.23;;
11125;SDS011;5617;54.046;10.676;2023-03-23T02:20:33;9.50;;;8.27;;
11125;SDS011;5617;54.046;10.676;2023-03-23T02:25:36;10.73;;;9.53;;
11125;SDS011;5617;54.046;10.676;2023-03-23T02:28:05;8.83;;;7.93;;
11125;SDS011;5617;54.046;10.676;2023-03-23T02:30:31;10.57;;;8.43;;
11125;SDS011;5617;54.046;10.676;2023-03-23T02:33:09;9.73;;;7.73;;
11125;SDS011;5617;54.046;10.676;2023-03-23T02:35:37;9.77;;;8.73;;
11125;SDS011;5617;54.046;10.676;2023-03-23T02:37:49;10.07;;;8.77;;
11125;SDS011;5617;54.046;10.676;2023-03-23T02:40:01;8.10;;;6.60;;
11125;SDS011;5617;54.046;10.676;2023-03-23T02:42:17;9.10;;;8.20;;
11125;SDS011;5617;54.046;10.676;2023-03-23T02:44:29;10.13;;;8.27;;
11125;SDS011;5617;54.046;10.676;2023-03-23T02:46:39;9.60;;;8.37;;
11125;SDS011;5617;54.046;10.676;2023-03-23T02:48:50;8.43;;;7.23;;
11125;SDS011;5617;54.046;10.676;2023-03-23T02:51:02;11.17;;;8.67;;
11125;SDS011;5617;54.046;10.676;2023-03-23T02:53:12;8.60;;;7.80;;
11125;SDS011;5617;54.046;10.676;2023-03-23T02:55:22;8.93;;;7.83;;
11125;SDS011;5617;54.046;10.676;2023-03-23T02:57:31;8.67;;;7.87;;
11125;SDS011;5617;54.046;10.676;2023-03-23T02:59:39;9.87;;;8.67;;
11125;SDS011;5617;54.046;10.676;2023-03-23T03:01:48;8.63;;;7.83;;
11125;SDS011;5617;54.046;10.676;2023-03-23T03:04:03;8.63;;;7.73;;
11125;SDS011;5617;54.046;10.676;2023-03-23T03:06:14;8.07;;;7.07;;
11125;SDS011;5617;54.046;10.676;2023-03-23T03:08:30;9.03;;;8.13;;
11125;SDS011;5617;54.046;10.676;2023-03-23T03:10:46;8.33;;;7.53;;
11125;SDS011;5617;54.046;10.676;2023-03-23T03:13:01;8.67;;;7.60;;
11125;SDS011;5617;54.046;10.676;2023-03-23T03:15:15;8.30;;;7.50;;
11125;SDS011;5617;54.046;10.676;2023-03-23T03:17:31;9.93;;;7.90;;
11125;SDS011;5617;54.046;10.676;2023-03-23T03:19:41;8.50;;;7.57;;
11125;SDS011;5617;54.046;10.676;2023-03-23T03:21:51;8.77;;;7.50;;
11125;SDS011;5617;54.046;10.676;2023-03-23T03:24:02;8.30;;;6.43;;
11125;SDS011;5617;54.046;10.676;2023-03-23T03:26:14;7.90;;;7.10;;
11125;SDS011;5617;54.046;10.676;2023-03-23T03:28:23;7.57;;;6.87;;
11125;SDS011;5617;54.046;10.676;2023-03-23T03:30:33;7.87;;;7.07;;
11125;SDS011;5617;54.046;10.676;2023-03-23T03:32:48;7.20;;;6.40;;
11125;SDS011;5617;54.046;10.676;2023-03-23T03:35:01;7.70;;;6.80;;
11125;SDS011;5617;54.046;10.676;2023-03-23T03:37:14;8.37;;;7.57;;
11125;SDS011;5617;54.046;10.676;2023-03-23T03:39:23;6.83;;;6.00;;
11125;SDS011;5617;54.046;10.676;2023-03-23T03:41:31;7.97;;;7.27;;
11125;SDS011;5617;54.046;10.676;2023-03-23T03:43:39;8.53;;;7.47;;
11125;SDS011;5617;54.046;10.676;2023-03-23T03:45:47;8.00;;;7.23;;
11125;SDS011;5617;54.046;10.676;2023-03-23T03:47:55;7.57;;;6.87;;
11125;SDS011;5617;54.046;10.676;2023-03-23T03:50:06;8.10;;;7.30;;
11125;SDS011;5617;54.046;10.676;2023-03-23T03:52:14;8.20;;;7.40;;
11125;SDS011;5617;54.046;10.676;2023-03-23T03:54:22;5.93;;;4.80;;
11125;SDS011;5617;54.046;10.676;2023-03-23T03:56:30;8.63;;;7.83;;
11125;SDS011;5617;54.046;10.676;2023-03-23T03:58:41;9.17;;;8.27;;
11125;SDS011;5617;54.046;10.676;2023-03-23T04:00:49;7.67;;;6.97;;
11125;SDS011;5617;54.046;10.676;2023-03-23T04:02:59;9.80;;;8.90;;
11125;SDS011;5617;54.046;10.676;2023-03-23T04:05:08;9.27;;;8.43;;
11125;SDS011;5617;54.046;10.676;2023-03-23T04:07:17;9.03;;;8.10;;
11125;SDS011;5617;54.046;10.676;2023-03-23T04:09:25;8.87;;;8.00;;
11125;SDS011;5617;54.046;10.676;2023-03-23T04:11:34;9.90;;;8.90;;
11125;SDS011;5617;54.046;10.676;2023-03-23T04:13:41;8.07;;;7.27;;
11125;SDS011;5617;54.046;10.676;2023-03-23T04:15:49;10.10;;;9.20;;
11125;SDS011;5617;54.046;10.676;2023-03-23T04:17:57;9.53;;;8.53;;
11125;SDS011;5617;54.046;10.676;2023-03-23T04:20:05;10.60;;;9.50;;
11125;SDS011;5617;54.046;10.676;2023-03-23T04:22:23;8.80;;;8.00;;
11125;SDS011;5617;54.046;10.676;2023-03-23T04:24:35;10.33;;;9.50;;
11125;SDS011;5617;54.046;10.676;2023-03-23T04:26:43;8.70;;;7.90;;
11125;SDS011;5617;54.046;10.676;2023-03-23T04:28:51;9.37;;;8.47;;
11125;SDS011;5617;54.046;10.676;2023-03-23T04:30:58;7.73;;;7.03;;
11125;SDS011;5617;54.046;10.676;2023-03-23T04:33:09;10.73;;;9.73;;
11125;SDS011;5617;54.046;10.676;2023-03-23T04:35:22;9.57;;;8.67;;
11125;SDS011;5617;54.046;10.676;2023-03-23T04:37:32;10.87;;;8.83;;
11125;SDS011;5617;54.046;10.676;2023-03-23T04:39:40;8.70;;;7.93;;
11125;SDS011;5617;54.046;10.676;2023-03-23T04:41:51;11.23;;;10.23;;
11125;SDS011;5617;54.046;10.676;2023-03-23T04:43:58;10.27;;;9.27;;
11125;SDS011;5617;54.046;10.676;2023-03-23T04:46:08;10.50;;;9.50;;
11125;SDS011;5617;54.046;10.676;2023-03-23T04:48:16;10.37;;;9.37;;
11125;SDS011;5617;54.046;10.676;2023-03-23T04:50:28;10.53;;;9.53;;
11125;SDS011;5617;54.046;10.676;2023-03-23T04:52:39;9.73;;;8.83;;
11125;SDS011;5617;54.046;10.676;2023-03-23T04:54:51;9.83;;;8.93;;
11125;SDS011;5617;54.046;10.676;2023-03-23T04:56:59;11.53;;;10.33;;
11125;SDS011;5617;54.046;10.676;2023-03-23T04:59:07;10.90;;;9.80;;
11125;SDS011;5617;54.046;10.676;2023-03-23T05:01:15;11.07;;;10.07;;
11125;SDS011;5617;54.046;10.676;2023-03-23T05:03:23;10.93;;;9.93;;
11125;SDS011;5617;54.046;10.676;2023-03-23T05:05:33;11.03;;;9.93;;
11125;SDS011;5617;54.046;10.676;2023-03-23T05:07:41;11.90;;;10.80;;
11125;SDS011;5617;54.046;10.676;2023-03-23T05:09:49;11.53;;;10.43;;
11125;SDS011;5617;54.046;10.676;2023-03-23T05:11:57;12.20;;;11.00;;
11125;SDS011;5617;54.046;10.676;2023-03-23T05:14:10;11.77;;;10.57;;
11125;SDS011;5617;54.046;10.676;2023-03-23T05:16:17;11.03;;;10.03;;
11125;SDS011;5617;54.046;10.676;2023-03-23T05:18:25;11.33;;;10.23;;
11125;SDS011;5617;54.046;10.676;2023-03-23T05:20:34;10.97;;;9.97;;
11125;SDS011;5617;54.046;10.676;2023-03-23T05:22:42;11.00;;;10.00;;
11125;SDS011;5617;54.046;10.676;2023-03-23T05:24:50;10.13;;;9.17;;
11125;SDS011;5617;54.046;10.676;2023-03-23T05:26:58;10.80;;;9.80;;
11125;SDS011;5617;54.046;10.676;2023-03-23T05:29:06;10.33;;;9.43;;
11125;SDS011;5617;54.046;10.676;2023-03-23T05:31:14;9.90;;;8.90;;
11125;SDS011;5617;54.046;10.676;2023-03-23T05:33:24;9.70;;;8.57;;
11125;SDS011;5617;54.046;10.676;2023-03-23T05:35:31;9.53;;;8.63;;
11125;SDS011;5617;54.046;10.676;2023-03-23T05:37:41;9.97;;;8.97;;
11125;SDS011;5617;54.046;10.676;2023-03-23T05:39:49;9.13;;;8.30;;
11125;SDS011;5617;54.046;10.676;2023-03-23T05:41:59;9.57;;;8.20;;
11125;SDS011;5617;54.046;10.676;2023-03-23T05:44:06;9.57;;;8.63;;
11125;SDS011;5617;54.046;10.676;2023-03-23T05:46:14;9.77;;;8.70;;
11125;SDS011;5617;54.046;10.676;2023-03-23T05:48:22;9.90;;;8.27;;
11125;SDS011;5617;54.046;10.676;2023-03-23T05:50:30;9.00;;;8.10;;
11125;SDS011;5617;54.046;10.676;2023-03-23T05:52:38;8.90;;;7.97;;
11125;SDS011;5617;54.046;10.676;2023-03-23T05:54:47;9.37;;;8.47;;
11125;SDS011;5617;54.046;10.676;2023-03-23T05:56:55;9.73;;;8.73;;
11125;SDS011;5617;54.046;10.676;2023-03-23T05:59:03;10.10;;;9.00;;
11125;SDS011;5617;54.046;10.676;2023-03-23T06:01:11;9.43;;;8.53;;
11125;SDS011;5617;54.046;10.676;2023-03-23T06:03:20;9.80;;;8.50;;
11125;SDS011;5617;54.046;10.676;2023-03-23T06:05:28;10.90;;;9.23;;
11125;SDS011;5617;54.046;10.676;2023-03-23T06:07:36;12.07;;;9.03;;
11125;SDS011;5617;54.046;10.676;2023-03-23T06:09:45;10.37;;;9.37;;
11125;SDS011;5617;54.046;10.676;2023-03-23T06:11:53;10.20;;;9.23;;
11125;SDS011;5617;54.046;10.676;2023-03-23T06:14:01;11.10;;;9.50;;
11125;SDS011;5617;54.046;10.676;2023-03-23T06:16:09;10.40;;;9.50;;
11125;SDS011;5617;54.046;10.676;2023-03-23T06:18:17;9.60;;;8.70;;
11125;SDS011;5617;54.046;10.676;2023-03-23T06:20:26;11.63;;;9.50;;
11125;SDS011;5617;54.046;10.676;2023-03-23T06:22:34;12.27;;;9.73;;
11125;SDS011;5617;54.046;10.676;2023-03-23T06:24:42;10.73;;;9.63;;
11125;SDS011;5617;54.046;10.676;2023-03-23T06:26:49;9.40;;;8.40;;
11125;SDS011;5617;54.046;10.676;2023-03-23T06:28:58;10.57;;;9.47;;
11125;SDS011;5617;54.046;10.676;2023-03-23T06:31:06;10.03;;;9.00;;
11125;SDS011;5617;54.046;10.676;2023-03-23T06:33:14;10.90;;;8.27;;
11125;SDS011;5617;54.046;10.676;2023-03-23T06:35:23;10.07;;;8.13;;
11125;SDS011;5617;54.046;10.676;2023-03-23T06:37:31;9.53;;;8.63;;
11125;SDS011;5617;54.046;10.676;2023-03-23T06:39:39;9.30;;;8.33;;
11125;SDS011;5617;54.046;10.676;2023-03-23T06:41:46;9.73;;;8.73;;
11125;SDS011;5617;54.046;10.676;2023-03-23T06:43:54;9.80;;;8.90;;
11125;SDS011;5617;54.046;10.676;2023-03-23T06:46:03;9.83;;;8.90;;
11125;SDS011;5617;54.046;10.676;2023-03-23T06:48:11;8.37;;;7.60;;
11125;SDS011;5617;54.046;10.676;2023-03-23T06:50:19;9.17;;;8.27;;
11125;SDS011;5617;54.046;10.676;2023-03-23T06:52:27;8.93;;;8.13;;
11125;SDS011;5617;54.046;10.676;2023-03-23T06:54:35;9.23;;;8.33;;
11125;SDS011;5617;54.046;10.676;2023-03-23T06:56:42;9.07;;;8.17;;
11125;SDS011;5617;54.046;10.676;2023-03-23T06:58:50;9.30;;;8.30;;
11125;SDS011;5617;54.046;10.676;2023-03-23T07:00:58;9.40;;;8.50;;
11125;SDS011;5617;54.046;10.676;2023-03-23T07:03:08;9.73;;;8.73;;
11125;SDS011;5617;54.046;10.676;2023-03-23T07:05:17;8.90;;;8.07;;
11125;SDS011;5617;54.046;10.676;2023-03-23T07:07:26;7.70;;;6.90;;
11125;SDS011;5617;54.046;10.676;2023-03-23T07:09:39;7.37;;;6.67;;
11125;SDS011;5617;54.046;10.676;2023-03-23T07:11:51;7.97;;;7.00;;
11125;SDS011;5617;54.046;10.676;2023-03-23T07:13:59;7.90;;;7.13;;
11125;SDS011;5617;54.046;10.676;2023-03-23T07:16:07;7.70;;;7.00;;
11125;SDS011;5617;54.046;10.676;2023-03-23T07:18:18;7.90;;;6.53;;
11125;SDS011;5617;54.046;10.676;2023-03-23T07:20:26;5.60;;;5.10;;
11125;SDS011;5617;54.046;10.676;2023-03-23T07:22:34;6.40;;;5.70;;
11125;SDS011;5617;54.046;10.676;2023-03-23T07:24:41;7.43;;;6.43;;
11125;SDS011;5617;54.046;10.676;2023-03-23T07:26:49;7.70;;;5.90;;
11125;SDS011;5617;54.046;10.676;2023-03-23T07:28:57;5.87;;;5.03;;
11125;SDS011;5617;54.046;10.676;2023-03-23T07:31:05;5.97;;;5.47;;
11125;SDS011;5617;54.046;10.676;2023-03-23T07:33:14;5.73;;;5.20;;
11125;SDS011;5617;54.046;10.676;2023-03-23T07:35:24;5.77;;;5.20;;
11125;SDS011;5617;54.046;10.676;2023-03-23T07:37:32;5.97;;;4.90;;
11125;SDS011;5617;54.046;10.676;2023-03-23T07:39:40;5.80;;;5.30;;
11125;SDS011;5617;54.046;10.676;2023-03-23T07:41:48;5.57;;;5.00;;
11125;SDS011;5617;54.046;10.676;2023-03-23T07:43:55;5.73;;;4.50;;
11125;SDS011;5617;54.046;10.676;2023-03-23T07:46:03;4.77;;;4.33;;
11125;SDS011;5617;54.046;10.676;2023-03-23T07:48:12;4.50;;;4.10;;
11125;SDS011;5617;54.046;10.676;2023-03-23T07:50:19;4.47;;;4.07;;
11125;SDS011;5617;54.046;10.676;2023-03-23T07:52:31;4.30;;;3.90;;
11125;SDS011;5617;54.046;10.676;2023-03-23T07:54:39;3.97;;;3.57;;
11125;SDS011;5617;54.046;10.676;2023-03-23T07:56:47;4.40;;;3.70;;
11125;SDS011;5617;54.046;10.676;2023-03-23T07:58:56;3.83;;;3.53;;
11125;SDS011;5617;54.046;10.676;2023-03-23T08:01:04;4.67;;;4.07;;
11125;SDS011;5617;54.046;10.676;2023-03-23T08:03:12;4.20;;;3.77;;
11125;SDS011;5617;54.046;10.676;2023-03-23T08:05:20;5.40;;;3.40;;
11125;SDS011;5617;54.046;10.676;2023-03-23T08:07:30;5.23;;;3.40;;
11125;SDS011;5617;54.046;10.676;2023-03-23T08:09:38;3.80;;;3.50;;
11125;SDS011;5617;54.046;10.676;2023-03-23T08:11:46;3.10;;;2.60;;
11125;SDS011;5617;54.046;10.676;2023-03-23T08:13:54;3.20;;;2.90;;
11125;SDS011;5617;54.046;10.676;2023-03-23T08:16:02;3.93;;;2.60;;
11125;SDS011;5617;54.046;10.676;2023-03-23T08:18:10;1.50;;;1.23;;
11125;SDS011;5617;54.046;10.676;2023-03-23T08:20:18;2.03;;;1.03;;
11125;SDS011;5617;54.046;10.676;2023-03-23T08:22:27;2.03;;;1.10;;
11125;SDS011;5617;54.046;10.676;2023-03-23T08:24:38;2.70;;;1.30;;
11125;SDS011;5617;54.046;10.676;2023-03-23T08:26:45;2.80;;;0.97;;
11125;SDS011;5617;54.046;10.676;2023-03-23T08:28:53;3.70;;;1.43;;
11125;SDS011;5617;54.046;10.676;2023-03-23T08:31:05;3.67;;;1.30;;
11125;SDS011;5617;54.046;10.676;2023-03-23T08:33:13;5.47;;;1.27;;
11125;SDS011;5617;54.046;10.676;2023-03-23T08:35:21;3.10;;;1.40;;
11125;SDS011;5617;54.046;10.676;2023-03-23T08:37:31;4.70;;;1.50;;
11125;SDS011;5617;54.046;10.676;2023-03-23T08:39:40;2.77;;;1.33;;
11125;SDS011;5617;54.046;10.676;2023-03-23T08:41:49;3.10;;;1.30;;
11125;SDS011;5617;54.046;10.676;2023-03-23T08:43:56;1.80;;;0.90;;
11125;SDS011;5617;54.046;10.676;2023-03-23T08:46:04;4.20;;;1.10;;
11125;SDS011;5617;54.046;10.676;2023-03-23T08:48:15;3.27;;;1.10;;
11125;SDS011;5617;54.046;10.676;2023-03-23T08:50:24;2.10;;;1.23;;
11125;SDS011;5617;54.046;10.676;2023-03-23T08:52:33;2.97;;;1.47;;
11125;SDS011;5617;54.046;10.676;2023-03-23T08:54:43;2.30;;;1.27;;
11125;SDS011;5617;54.046;10.676;2023-03-23T08:56:53;2.40;;;1.20;;
11125;SDS011;5617;54.046;10.676;2023-03-23T08:59:00;2.30;;;1.50;;
11125;SDS011;5617;54.046;10.676;2023-03-23T09:01:08;2.50;;;1.30;;
11125;SDS011;5617;54.046;10.676;2023-03-23T09:03:17;2.53;;;1.30;;
11125;SDS011;5617;54.046;10.676;2023-03-23T09:05:25;3.27;;;1.57;;
11125;SDS011;5617;54.046;10.676;2023-03-23T09:07:34;2.40;;;1.50;;
11125;SDS011;5617;54.046;10.676;2023-03-23T09:09:43;3.93;;;1.60;;
11125;SDS011;5617;54.046;10.676;2023-03-23T09:11:52;5.27;;;2.00;;
11125;SDS011;5617;54.046;10.676;2023-03-23T09:14:00;2.10;;;1.30;;
11125;SDS011;5617;54.046;10.676;2023-03-23T09:16:08;3.57;;;1.77;;
11125;SDS011;5617;54.046;10.676;2023-03-23T09:18:16;2.57;;;1.50;;
11125;SDS011;5617;54.046;10.676;2023-03-23T09:20:25;4.10;;;1.70;;
11125;SDS011;5617;54.046;10.676;2023-03-23T09:22:34;1.93;;;0.97;;
11125;SDS011;5617;54.046;10.676;2023-03-23T09:24:44;2.53;;;1.40;;
11125;SDS011;5617;54.046;10.676;2023-03-23T09:26:53;4.03;;;1.50;;
11125;SDS011;5617;54.046;10.676;2023-03-23T09:29:00;3.47;;;1.60;;
11125;SDS011;5617;54.046;10.676;2023-03-23T09:31:08;2.37;;;1.60;;
11125;SDS011;5617;54.046;10.676;2023-03-23T09:33:17;3.87;;;1.67;;
11125;SDS011;5617;54.046;10.676;2023-03-23T09:35:25;2.33;;;1.30;;
11125;SDS011;5617;54.046;10.676;2023-03-23T09:37:34;2.17;;;1.23;;
11125;SDS011;5617;54.046;10.676;2023-03-23T09:39:44;2.97;;;1.80;;
11125;SDS011;5617;54.046;10.676;2023-03-23T09:41:58;4.13;;;1.40;;
11125;SDS011;5617;54.046;10.676;2023-03-23T09:44:21;2.90;;;1.20;;
11125;SDS011;5617;54.046;10.676;2023-03-23T09:46:40;4.27;;;1.67;;
11125;SDS011;5617;54.046;10.676;2023-03-23T09:48:56;3.20;;;1.03;;
11125;SDS011;5617;54.046;10.676;2023-03-23T09:51:08;3.30;;;1.40;;
11125;SDS011;5617;54.046;10.676;2023-03-23T09:53:28;1.63;;;1.00;;
11125;SDS011;5617;54.046;10.676;2023-03-23T09:55:44;3.27;;;0.77;;
11125;SDS011;5617;54.046;10.676;2023-03-23T09:57:53;3.47;;;1.37;;
11125;SDS011;5617;54.046;10.676;2023-03-23T10:00:09;2.50;;;1.10;;
11125;SDS011;5617;54.046;10.676;2023-03-23T10:02:24;5.13;;;1.10;;
11125;SDS011;5617;54.046;10.676;2023-03-23T10:04:38;3.60;;;1.30;;
11125;SDS011;5617;54.046;10.676;2023-03-23T10:06:51;2.00;;;1.10;;
11125;SDS011;5617;54.046;10.676;2023-03-23T10:09:01;2.97;;;1.00;;
11125;SDS011;5617;54.046;10.676;2023-03-23T10:11:33;4.93;;;1.20;;
11125;SDS011;5617;54.046;10.676;2023-03-23T10:14:00;2.27;;;0.80;;
11125;SDS011;5617;54.046;10.676;2023-03-23T10:16:36;2.33;;;1.17;;
11125;SDS011;5617;54.046;10.676;2023-03-23T10:18:47;3.00;;;1.40;;
11125;SDS011;5617;54.046;10.676;2023-03-23T10:21:01;3.43;;;1.40;;
11125;SDS011;5617;54.046;10.676;2023-03-23T10:23:13;5.50;;;1.40;;
11125;SDS011;5617;54.046;10.676;2023-03-23T10:25:31;3.03;;;1.00;;
11125;SDS011;5617;54.046;10.676;2023-03-23T10:27:47;1.23;;;0.77;;
11125;SDS011;5617;54.046;10.676;2023-03-23T10:30:02;3.03;;;1.70;;
11125;SDS011;5617;54.046;10.676;2023-03-23T10:32:39;3.03;;;0.80;;
11125;SDS011;5617;54.046;10.676;2023-03-23T10:34:59;2.70;;;1.00;;
11125;SDS011;5617;54.046;10.676;2023-03-23T10:37:12;3.70;;;1.40;;
11125;SDS011;5617;54.046;10.676;2023-03-23T10:39:26;5.17;;;1.33;;
11125;SDS011;5617;54.046;10.676;2023-03-23T10:41:38;3.93;;;1.20;;
11125;SDS011;5617;54.046;10.676;2023-03-23T10:43:48;2.43;;;1.07;;
11125;SDS011;5617;54.046;10.676;2023-03-23T10:45:57;1.80;;;0.87;;
11125;SDS011;5617;54.046;10.676;2023-03-23T10:48:09;3.90;;;1.17;;
11125;SDS011;5617;54.046;10.676;2023-03-23T10:50:22;3.90;;;1.03;;
11125;SDS011;5617;54.046;10.676;2023-03-23T10:52:34;3.40;;;1.40;;
11125;SDS011;5617;54.046;10.676;2023-03-23T10:54:46;3.50;;;0.90;;
11125;SDS011;5617;54.046;10.676;2023-03-23T10:56:58;3.33;;;1.20;;
11125;SDS011;5617;54.046;10.676;2023-03-23T10:59:14;4.30;;;1.53;;
11125;SDS011;5617;54.046;10.676;2023-03-23T11:01:31;2.67;;;1.10;;
11125;SDS011;5617;54.046;10.676;2023-03-23T11:03:41;4.13;;;1.33;;
11125;SDS011;5617;54.046;10.676;2023-03-23T11:05:52;3.00;;;1.10;;
11125;SDS011;5617;54.046;10.676;2023-03-23T11:08:03;2.73;;;1.30;;
11125;SDS011;5617;54.046;10.676;2023-03-23T11:10:21;1.90;;;0.87;;
11125;SDS011;5617;54.046;10.676;2023-03-23T11:12:32;3.70;;;1.07;;
11125;SDS011;5617;54.046;10.676;2023-03-23T11:14:42;3.90;;;1.03;;
11125;SDS011;5617;54.046;10.676;2023-03-23T11:16:51;3.37;;;1.23;;
11125;SDS011;5617;54.046;10.676;2023-03-23T11:19:12;2.20;;;0.87;;
11125;SDS011;5617;54.046;10.676;2023-03-23T11:21:21;4.30;;;1.30;;
11125;SDS011;5617;54.046;10.676;2023-03-23T11:23:32;5.57;;;1.30;;
11125;SDS011;5617;54.046;10.676;2023-03-23T11:25:52;5.93;;;1.60;;
11125;SDS011;5617;54.046;10.676;2023-03-23T11:28:07;6.00;;;1.10;;
11125;SDS011;5617;54.046;10.676;2023-03-23T11:30:21;4.90;;;1.33;;
11125;SDS011;5617;54.046;10.676;2023-03-23T11:32:31;3.57;;;1.30;;
11125;SDS011;5617;54.046;10.676;2023-03-23T11:34:40;3.67;;;1.10;;
11125;SDS011;5617;54.046;10.676;2023-03-23T11:36:50;4.13;;;1.20;;
11125;SDS011;5617;54.046;10.676;2023-03-23T11:39:00;3.73;;;0.90;;
11125;SDS011;5617;54.046;10.676;2023-03-23T11:41:12;5.17;;;1.70;;
11125;SDS011;5617;54.046;10.676;2023-03-23T11:43:25;3.13;;;1.20;;
11125;SDS011;5617;54.046;10.676;2023-03-23T11:45:35;2.27;;;1.33;;
11125;SDS011;5617;54.046;10.676;2023-03-23T11:50:20;3.80;;;1.20;;
11125;SDS011;5617;54.046;10.676;2023-03-23T11:52:32;5.90;;;1.47;;
11125;SDS011;5617;54.046;10.676;2023-03-23T11:54:48;3.80;;;1.27;;
11125;SDS011;5617;54.046;10.676;2023-03-23T11:57:05;2.40;;;0.80;;
11125;SDS011;5617;54.046;10.676;2023-03-23T11:59:17;3.43;;;1.50;;
11125;SDS011;5617;54.046;10.676;2023-03-23T12:01:32;3.90;;;1.10;;
11125;SDS011;5617;54.046;10.676;2023-03-23T12:03:56;4.47;;;1.20;;
11125;SDS011;5617;54.046;10.676;2023-03-23T12:06:11;5.73;;;1.63;;
11125;SDS011;5617;54.046;10.676;2023-03-23T12:08:28;8.30;;;1.53;;
11125;SDS011;5617;54.046;10.676;2023-03-23T12:10:46;7.53;;;1.60;;
11125;SDS011;5617;54.046;10.676;2023-03-23T12:13:04;2.63;;;0.83;;
11125;SDS011;5617;54.046;10.676;2023-03-23T12:15:21;5.23;;;1.60;;
11125;SDS011;5617;54.046;10.676;2023-03-23T12:17:38;7.27;;;1.53;;
11125;SDS011;5617;54.046;10.676;2023-03-23T12:19:59;4.47;;;1.50;;
11125;SDS011;5617;54.046;10.676;2023-03-23T12:22:21;5.23;;;1.23;;
11125;SDS011;5617;54.046;10.676;2023-03-23T12:24:46;4.77;;;1.40;;
11125;SDS011;5617;54.046;10.676;2023-03-23T12:27:01;4.53;;;1.40;;
11125;SDS011;5617;54.046;10.676;2023-03-23T12:29:19;6.80;;;1.63;;
11125;SDS011;5617;54.046;10.676;2023-03-23T12:31:37;2.60;;;1.03;;
11125;SDS011;5617;54.046;10.676;2023-03-23T12:33:56;6.87;;;1.80;;
11125;SDS011;5617;54.046;10.676;2023-03-23T12:36:10;6.67;;;1.60;;
11125;SDS011;5617;54.046;10.676;2023-03-23T12:41:15;4.60;;;1.40;;
11125;SDS011;5617;54.046;10.676;2023-03-23T12:43:26;7.23;;;1.70;;
11125;SDS011;5617;54.046;10.676;2023-03-23T12:45:46;5.70;;;1.50;;
11125;SDS011;5617;54.046;10.676;2023-03-23T12:48:12;6.30;;;1.90;;
11125;SDS011;5617;54.046;10.676;2023-03-23T12:50:25;4.47;;;1.50;;
11125;SDS011;5617;54.046;10.676;2023-03-23T12:52:37;3.60;;;1.23;;
11125;SDS011;5617;54.046;10.676;2023-03-23T12:54:53;4.47;;;1.50;;
11125;SDS011;5617;54.046;10.676;2023-03-23T12:57:11;6.83;;;1.73;;
11125;SDS011;5617;54.046;10.676;2023-03-23T12:59:26;6.17;;;1.67;;
11125;SDS011;5617;54.046;10.676;2023-03-23T13:01:42;6.50;;;1.77;;
11125;SDS011;5617;54.046;10.676;2023-03-23T13:03:53;4.73;;;1.53;;
11125;SDS011;5617;54.046;10.676;2023-03-23T13:06:06;5.10;;;1.60;;
11125;SDS011;5617;54.046;10.676;2023-03-23T13:08:22;4.87;;;1.50;;
11125;SDS011;5617;54.046;10.676;2023-03-23T13:10:33;6.10;;;1.97;;
11125;SDS011;5617;54.046;10.676;2023-03-23T13:12:46;5.50;;;1.73;;
11125;SDS011;5617;54.046;10.676;2023-03-23T13:14:56;3.13;;;1.20;;
11125;SDS011;5617;54.046;10.676;2023-03-23T13:17:15;7.50;;;1.47;;
11125;SDS011;5617;54.046;10.676;2023-03-23T13:19:31;4.73;;;1.37;;